Grays Harbor City, Washington
Current Conditions -  °F | °C
As of 8:53 AM on Thursday 23 Oct 2014 (Local Time) from KHQM Reporting Station
Overcast Overcast  
Wind Chill: 53°   Ceiling: 4700
Heat Index: 53°   Visibility: 8mi
Dew Point: 51°   Wind: 7mph
Humidity: 93%   Direction: 120°ESE
Pressure: 29.74"   Gusts: NA
Location:  47.0202°N, 123.878°W
Report Text: KHQM 231553Z AUTO 12006KT 8SM BKN047 OVC060 12/11 A2974 RMK AO2 RAE17 SLP074 P0005 T01170106
Loading
Personal Weather Stations






























Interactive Weather Map
Tropical Storm Tracking
New forecast layout! Learn more

10-Day Weather Forecast

Advertisements
Track Severe Weather on mobile